Главная страница
METAR-TAF:

METAR-TAF

Аэропорты :

Кано, Нигерия

широта: 12-03N, долгота: 008-32E, высота над уровнем моря: 476 м

Текущие метеонаблюдения

Эта сводка был подготовлена 1 час и 18 минут назад, в 18:00 UTC
Ветер 2 Узел переменных направлений
Температура 28°C
Влажность 74%
Давление 1014 hPa
Видимость 10 км и более
небольшая облачность на высоте 1300 фута
небольшая облачность на высоте 1900 фута, Кучево-дождевые.

METAR: DNKN 151800Z VRB02KT 9999 FEW013 FEW019CB 28/23 Q1014 NOSIG

Время: 20:18 (19:18 UTC)

Прогноз

Эта сводка был подготовлена 3 часа и 48 минут назад, в 15:30 UTC
Прогноз действительный с 15-го 18 UTC до 16-го 24 UTC
Ветер 8 Узел от западный-юго-западный
Видимость 10 км и более
Нет облачности ниже 1500 м, и нет кучево-дождевой облачности

TAF: DNKN 151530Z 1518/1624 24008KT CAVOK

Метеонаблюдения и прогнозы для более 4000 аэропортов (сводки METAR и TAF).

Имеющиеся станции представлены на карте желтыми и красными точками.

Чтобы увидеть название станции, наведите на нее мышь.

Затем щелкните, чтобы увидеть метеонаблюдения и метеопрогнозы.

Управление картой: чтобы увеличить масштаб, щелкните зеленые кнопки с черным крестиком; чтобы уменьшить масштаб, щелкните зеленую кнопку с тире; для просмотра соседних карт щелкайте зеленые стрелки.


METAR-TAF: